Time;durP1;ratioP1;P1;durP2;ratioP2;P2;SDS_P1;SDS_P2;PMS_P1;PMS_P2;Temp;Humidity;BMP_temperature;BMP_pressure;BME280_temperature;BME280_humidity;BME280_pressure;Samples;Min_cycle;Max_cycle;Signal;HPM_P1;HPM_P2
2023/05/24 00:01:02;;;;;;;10.18;6.75;;;;;;;;;;5071403;28;20044;-64
2023/05/24 00:03:33;;;;;;;12.43;6.82;;;;;;;;;;5072556;28;20049;-64
2023/05/24 00:06:01;;;;;;;8.35;6.88;;;;;;;;;;5072869;28;20032;-64
2023/05/24 00:08:29;;;;;;;13.38;7.28;;;;;;;;;;5073188;28;20044;-64
2023/05/24 00:10:56;;;;;;;11.90;7.15;;;;;;;;;;5073258;28;20044;-64
2023/05/24 00:13:24;;;;;;;10.80;7.30;;;;;;;;;;5073064;28;20033;-64
2023/05/24 00:15:51;;;;;;;9.20;7.20;;;;;;;;;;5073040;28;20044;-64
2023/05/24 00:18:19;;;;;;;11.95;7.50;;;;;;;;;;5071690;28;20040;-64
2023/05/24 00:20:46;;;;;;;8.32;7.10;;;;;;;;;;5072872;28;20105;-64
2023/05/24 00:23:14;;;;;;;13.90;8.00;;;;;;;;;;5071525;28;20048;-64
2023/05/24 00:25:42;;;;;;;8.68;7.72;;;;;;;;;;5072740;28;20040;-63
2023/05/24 00:28:09;;;;;;;8.95;7.50;;;;;;;;;;5072349;28;20045;-65
2023/05/24 00:30:37;;;;;;;8.75;7.80;;;;;;;;;;5072259;28;20045;-64
2023/05/24 00:33:05;;;;;;;13.02;8.35;;;;;;;;;;5072273;28;20072;-64
2023/05/24 00:35:32;;;;;;;11.13;7.75;;;;;;;;;;5071121;28;20068;-64
2023/05/24 00:38:00;;;;;;;13.75;8.05;;;;;;;;;;5070877;28;20056;-64
2023/05/24 00:40:27;;;;;;;9.35;7.70;;;;;;;;;;5070884;28;20072;-64
2023/05/24 00:42:55;;;;;;;10.13;7.50;;;;;;;;;;5070990;28;20520;-64
2023/05/24 00:45:22;;;;;;;11.93;7.72;;;;;;;;;;5070918;28;20040;-64
2023/05/24 00:47:50;;;;;;;9.88;7.30;;;;;;;;;;5072402;28;20049;-64
2023/05/24 00:50:19;;;;;;;10.30;7.10;;;;;;;;;;5073561;28;20087;-64
2023/05/24 00:52:47;;;;;;;12.00;7.38;;;;;;;;;;5074910;28;20045;-64
2023/05/24 00:55:15;;;;;;;10.73;7.20;;;;;;;;;;5074794;28;20498;-64
2023/05/24 00:57:43;;;;;;;10.90;7.80;;;;;;;;;;5076184;28;20044;-64
2023/05/24 01:00:11;;;;;;;13.00;7.50;;;;;;;;;;5074795;28;20041;-64
2023/05/24 01:02:38;;;;;;;13.98;7.07;;;;;;;;;;5074835;28;20049;-64
2023/05/24 01:05:08;;;;;;;12.45;8.13;;;;;;;;;;5074738;28;20053;-64
2023/05/24 01:07:41;;;;;;;11.25;7.63;;;;;;;;;;5074869;28;20068;-64
2023/05/24 01:10:16;;;;;;;16.30;7.53;;;;;;;;;;5075724;28;20075;-64
2023/05/24 01:12:49;;;;;;;10.15;7.40;;;;;;;;;;5074600;28;20091;-64
2023/05/24 01:15:32;;;;;;;8.55;6.80;;;;;;;;;;5074527;28;20045;-64
2023/05/24 01:18:06;;;;;;;16.55;7.53;;;;;;;;;;5074080;28;20137;-64
2023/05/24 01:20:37;;;;;;;16.85;8.10;;;;;;;;;;5057858;28;20051;-64
2023/05/24 01:23:16;;;;;;;15.77;8.18;;;;;;;;;;5074320;28;20413;-64
2023/05/24 01:25:43;;;;;;;11.98;8.38;;;;;;;;;;5074279;28;20135;-64
2023/05/24 01:28:11;;;;;;;14.18;8.45;;;;;;;;;;5074269;28;20076;-64
2023/05/24 01:30:40;;;;;;;12.98;8.68;;;;;;;;;;5074301;28;20391;-64
2023/05/24 01:33:08;;;;;;;11.68;8.02;;;;;;;;;;5074127;28;20032;-64
2023/05/24 01:35:40;;;;;;;14.38;8.80;;;;;;;;;;5075409;28;20040;-64
2023/05/24 01:38:09;;;;;;;12.98;8.60;;;;;;;;;;5087732;28;20063;-64
2023/05/24 01:40:37;;;;;;;13.00;8.25;;;;;;;;;;5077184;28;20047;-64
2023/05/24 01:43:23;;;;;;;12.63;8.73;;;;;;;;;;5077172;28;20043;-64
2023/05/24 01:46:00;;;;;;;10.98;7.93;;;;;;;;;;5077162;28;20127;-64
2023/05/24 01:48:46;;;;;;;14.40;8.48;;;;;;;;;;5077357;28;20571;-64
2023/05/24 01:51:15;;;;;;;15.60;8.23;;;;;;;;;;5077278;28;20144;-64
2023/05/24 01:53:46;;;;;;;16.63;8.05;;;;;;;;;;5077061;28;20123;-64
2023/05/24 01:56:16;;;;;;;14.45;8.25;;;;;;;;;;5076998;28;20444;-64
2023/05/24 01:58:45;;;;;;;14.07;8.20;;;;;;;;;;5076985;28;20466;-64
2023/05/24 02:01:13;;;;;;;14.93;8.23;;;;;;;;;;5076367;28;20039;-64
2023/05/24 02:03:41;;;;;;;16.08;8.13;;;;;;;;;;5076836;28;20040;-64
2023/05/24 02:06:09;;;;;;;12.32;7.95;;;;;;;;;;5076970;28;20409;-65
2023/05/24 02:08:39;;;;;;;14.13;8.45;;;;;;;;;;5076811;28;20097;-64
2023/05/24 02:11:06;;;;;;;14.70;10.10;;;;;;;;;;5094825;28;20048;-64
2023/05/24 02:13:34;;;;;;;13.77;8.07;;;;;;;;;;5077208;28;20490;-64
2023/05/24 02:16:03;;;;;;;12.23;8.98;;;;;;;;;;5076582;28;20130;-64
2023/05/24 02:18:33;;;;;;;16.42;8.75;;;;;;;;;;5076662;28;20047;-64
2023/05/24 02:21:01;;;;;;;13.57;8.82;;;;;;;;;;5094677;28;20062;-64
2023/05/24 02:23:29;;;;;;;14.70;8.82;;;;;;;;;;5094711;28;20551;-64
2023/05/24 02:25:59;;;;;;;11.05;9.20;;;;;;;;;;5076317;28;20528;-64
2023/05/24 02:28:27;;;;;;;13.38;9.15;;;;;;;;;;5094551;28;20075;-64
2023/05/24 02:30:54;;;;;;;14.55;8.60;;;;;;;;;;5076444;28;20047;-64
2023/05/24 02:33:24;;;;;;;20.02;8.90;;;;;;;;;;5094413;28;20362;-64
2023/05/24 02:35:52;;;;;;;16.52;9.68;;;;;;;;;;5059819;28;20048;-64
2023/05/24 02:38:19;;;;;;;14.85;9.70;;;;;;;;;;5076250;28;20051;-64
2023/05/24 02:40:47;;;;;;;19.70;9.63;;;;;;;;;;5059416;28;20068;-64
2023/05/24 02:43:14;;;;;;;13.35;9.00;;;;;;;;;;5076235;28;20036;-64
2023/05/24 02:45:42;;;;;;;16.05;9.88;;;;;;;;;;5076317;28;20050;-64
2023/05/24 02:48:09;;;;;;;13.40;9.95;;;;;;;;;;5059573;28;20063;-64
2023/05/24 02:50:37;;;;;;;16.17;9.65;;;;;;;;;;5075880;28;20068;-64
2023/05/24 02:53:04;;;;;;;14.10;9.98;;;;;;;;;;5075973;28;20040;-64
2023/05/24 02:55:32;;;;;;;13.52;9.48;;;;;;;;;;5094197;28;20454;-64
2023/05/24 02:58:00;;;;;;;13.23;8.73;;;;;;;;;;5075953;28;20048;-64
2023/05/24 03:00:29;;;;;;;16.52;9.50;;;;;;;;;;5075660;28;20040;-65
2023/05/24 03:03:01;;;;;;;16.38;9.85;;;;;;;;;;5075779;28;20068;-64
2023/05/24 03:05:29;;;;;;;17.13;9.68;;;;;;;;;;5075720;28;20036;-64
2023/05/24 03:07:57;;;;;;;17.55;9.68;;;;;;;;;;5075662;28;20063;-64
2023/05/24 03:10:24;;;;;;;15.30;8.52;;;;;;;;;;5075551;28;20044;-64
2023/05/24 03:12:52;;;;;;;18.60;8.93;;;;;;;;;;5074708;28;20032;-64
2023/05/24 03:15:20;;;;;;;17.40;8.80;;;;;;;;;;5075366;28;20075;-64
2023/05/24 03:17:47;;;;;;;16.17;8.05;;;;;;;;;;5075544;28;20131;-64
2023/05/24 03:20:16;;;;;;;22.00;8.15;;;;;;;;;;5075187;28;20043;-64
2023/05/24 03:22:45;;;;;;;21.05;8.82;;;;;;;;;;5093525;28;20482;-64
2023/05/24 03:25:13;;;;;;;21.63;8.55;;;;;;;;;;5075240;28;20048;-65
2023/05/24 03:27:41;;;;;;;21.25;8.50;;;;;;;;;;5075204;28;20451;-64
2023/05/24 03:30:09;;;;;;;18.55;8.23;;;;;;;;;;5075213;28;20440;-64
2023/05/24 03:32:45;;;;;;;15.75;8.32;;;;;;;;;;5059661;28;20071;-64
2023/05/24 03:35:12;;;;;;;16.65;8.30;;;;;;;;;;5075351;28;20131;-64
2023/05/24 03:37:40;;;;;;;13.32;8.98;;;;;;;;;;5074821;28;20139;-64
2023/05/24 03:40:08;;;;;;;12.40;8.80;;;;;;;;;;5075395;28;20048;-64
2023/05/24 03:43:08;;;;;;;18.20;9.45;;;;;;;;;;5069709;28;20048;-64
2023/05/24 03:45:44;;;;;;;17.27;8.77;;;;;;;;;;5075024;28;20054;-64
2023/05/24 03:48:12;;;;;;;13.88;9.18;;;;;;;;;;5075704;28;20564;-64
2023/05/24 03:50:40;;;;;;;15.85;8.88;;;;;;;;;;5074886;28;20058;-64
2023/05/24 03:53:08;;;;;;;21.33;9.25;;;;;;;;;;5074825;28;20040;-63
2023/05/24 03:55:35;;;;;;;17.17;9.57;;;;;;;;;;5061268;28;20080;-63
2023/05/24 03:58:03;;;;;;;19.27;9.57;;;;;;;;;;5054333;28;20117;-63
2023/05/24 04:00:30;;;;;;;17.63;10.35;;;;;;;;;;5054452;28;20048;-64
2023/05/24 04:02:59;;;;;;;16.13;10.02;;;;;;;;;;5054708;28;20043;-64
2023/05/24 04:05:28;;;;;;;23.83;11.20;;;;;;;;;;5056115;28;20508;-64
2023/05/24 04:07:56;;;;;;;14.95;9.80;;;;;;;;;;5056966;28;20553;-63
2023/05/24 04:10:24;;;;;;;14.88;9.98;;;;;;;;;;5054495;28;20049;-63
2023/05/24 04:12:51;;;;;;;19.58;10.77;;;;;;;;;;5054595;28;20387;-63
2023/05/24 04:15:20;;;;;;;20.13;13.25;;;;;;;;;;5054219;28;20094;-63
2023/05/24 04:17:53;;;;;;;22.00;14.05;;;;;;;;;;5054322;28;20064;-63
2023/05/24 04:20:26;;;;;;;20.80;13.77;;;;;;;;;;5054415;28;20041;-64
2023/05/24 04:22:55;;;;;;;19.42;15.85;;;;;;;;;;5054081;28;20836;-64
2023/05/24 04:25:22;;;;;;;28.58;18.55;;;;;;;;;;5054525;28;20048;-64
2023/05/24 04:27:50;;;;;;;24.13;16.73;;;;;;;;;;5037982;28;20048;-64
2023/05/24 04:30:18;;;;;;;19.90;16.48;;;;;;;;;;5054535;28;20599;-64
2023/05/24 04:32:46;;;;;;;26.52;16.58;;;;;;;;;;5054283;28;20045;-64
2023/05/24 04:35:15;;;;;;;24.48;16.95;;;;;;;;;;5054324;28;20045;-64
2023/05/24 04:37:43;;;;;;;18.38;12.30;;;;;;;;;;5054481;28;20052;-65
2023/05/24 04:40:11;;;;;;;16.33;12.25;;;;;;;;;;5072690;28;20049;-64
2023/05/24 04:42:38;;;;;;;17.33;11.18;;;;;;;;;;5072580;28;20039;-64
2023/05/24 04:45:06;;;;;;;14.90;10.52;;;;;;;;;;5073185;28;20049;-64
2023/05/24 04:47:34;;;;;;;14.27;10.60;;;;;;;;;;5072404;28;20174;-64
2023/05/24 04:50:02;;;;;;;15.32;10.50;;;;;;;;;;5052992;28;20040;-64
2023/05/24 04:52:29;;;;;;;15.05;10.88;;;;;;;;;;5053019;28;20063;-65
2023/05/24 04:54:57;;;;;;;15.07;9.93;;;;;;;;;;5070739;28;20123;-64
2023/05/24 04:57:26;;;;;;;15.30;10.05;;;;;;;;;;5052844;28;20094;-64
2023/05/24 04:59:53;;;;;;;16.65;10.18;;;;;;;;;;5070943;28;20067;-64
2023/05/24 05:02:21;;;;;;;18.80;9.77;;;;;;;;;;5052947;28;20041;-64
2023/05/24 05:04:49;;;;;;;15.88;10.02;;;;;;;;;;5072762;28;20048;-64
2023/05/24 05:07:16;;;;;;;17.50;10.13;;;;;;;;;;5072738;28;20041;-64
2023/05/24 05:09:43;;;;;;;12.07;9.98;;;;;;;;;;5072404;28;20036;-64
2023/05/24 05:12:11;;;;;;;20.55;10.88;;;;;;;;;;5072502;28;20040;-64
2023/05/24 05:14:39;;;;;;;13.73;9.93;;;;;;;;;;5072060;28;20036;-64
2023/05/24 05:17:06;;;;;;;16.85;9.55;;;;;;;;;;5054971;28;20051;-64
2023/05/24 05:19:34;;;;;;;15.23;9.77;;;;;;;;;;5054945;28;20107;-64
2023/05/24 05:22:02;;;;;;;13.70;9.52;;;;;;;;;;5072433;28;20052;-64
2023/05/24 05:24:30;;;;;;;15.02;10.23;;;;;;;;;;5072126;28;20040;-65
2023/05/24 05:26:57;;;;;;;16.02;9.90;;;;;;;;;;5072211;28;20425;-65
2023/05/24 05:29:25;;;;;;;13.50;9.95;;;;;;;;;;5053825;28;20045;-65
2023/05/24 05:31:52;;;;;;;13.98;9.50;;;;;;;;;;5071620;28;20044;-65
2023/05/24 05:34:20;;;;;;;13.63;10.25;;;;;;;;;;5053570;28;20048;-65
2023/05/24 05:36:47;;;;;;;14.40;9.77;;;;;;;;;;5074696;28;20087;-64
2023/05/24 05:39:16;;;;;;;14.20;10.07;;;;;;;;;;5075284;28;20055;-65
2023/05/24 05:41:44;;;;;;;13.80;9.75;;;;;;;;;;5076231;28;20032;-65
2023/05/24 05:44:13;;;;;;;15.68;9.40;;;;;;;;;;5082110;28;20043;-64
2023/05/24 05:46:42;;;;;;;14.15;9.63;;;;;;;;;;5085002;28;20072;-64
2023/05/24 05:49:10;;;;;;;15.23;10.20;;;;;;;;;;5081523;28;20036;-65
2023/05/24 05:51:38;;;;;;;13.32;10.18;;;;;;;;;;5090338;28;20359;-65
2023/05/24 05:54:07;;;;;;;15.48;9.85;;;;;;;;;;5075083;28;20044;-66
2023/05/24 05:56:39;;;;;;;15.68;10.30;;;;;;;;;;5074933;28;20139;-65
2023/05/24 05:59:07;;;;;;;18.35;10.43;;;;;;;;;;5057422;28;20067;-65
2023/05/24 06:01:34;;;;;;;14.60;9.05;;;;;;;;;;5075062;28;20051;-65
2023/05/24 06:04:02;;;;;;;14.10;9.20;;;;;;;;;;5056937;28;20456;-66
2023/05/24 06:06:30;;;;;;;14.90;10.15;;;;;;;;;;5075334;28;20075;-66
2023/05/24 06:08:57;;;;;;;16.25;8.90;;;;;;;;;;5074673;28;20072;-66
2023/05/24 06:11:25;;;;;;;14.48;9.45;;;;;;;;;;5074776;28;20033;-66
2023/05/24 06:13:53;;;;;;;14.15;8.82;;;;;;;;;;5056697;28;20442;-66
2023/05/24 06:16:21;;;;;;;17.10;9.35;;;;;;;;;;5074859;28;20040;-66
2023/05/24 06:18:48;;;;;;;15.07;9.27;;;;;;;;;;5073298;28;20037;-67
2023/05/24 06:21:31;;;;;;;10.05;7.47;;;;;;;;;;5074836;28;20045;-66
2023/05/24 06:24:01;;;;;;;13.25;7.47;;;;;;;;;;5074253;28;20043;-66
2023/05/24 06:26:29;;;;;;;10.85;7.35;;;;;;;;;;5074362;28;20508;-67
2023/05/24 06:28:56;;;;;;;11.63;7.13;;;;;;;;;;5056509;28;20040;-67
2023/05/24 06:31:24;;;;;;;11.10;7.05;;;;;;;;;;5074505;28;20094;-67
2023/05/24 06:33:52;;;;;;;10.02;6.88;;;;;;;;;;5074659;28;20040;-66
2023/05/24 06:36:41;;;;;;;12.35;6.72;;;;;;;;;;5074335;28;20045;-67
2023/05/24 06:39:09;;;;;;;12.75;6.95;;;;;;;;;;5075215;28;20045;-67
2023/05/24 06:41:37;;;;;;;8.77;6.30;;;;;;;;;;5074901;28;20658;-67
2023/05/24 06:44:05;;;;;;;10.57;7.03;;;;;;;;;;5068783;28;20032;-66
2023/05/24 06:46:33;;;;;;;10.27;5.97;;;;;;;;;;5091174;28;20500;-67
2023/05/24 06:49:00;;;;;;;8.73;6.13;;;;;;;;;;5080718;28;20120;-65
2023/05/24 06:51:29;;;;;;;11.70;6.00;;;;;;;;;;5055900;28;20063;-66
2023/05/24 06:53:56;;;;;;;13.15;8.23;;;;;;;;;;5073677;28;20048;-65
2023/05/24 06:56:24;;;;;;;11.80;6.13;;;;;;;;;;5073842;28;20494;-65
2023/05/24 06:58:51;;;;;;;10.15;7.05;;;;;;;;;;5073744;28;20060;-66
2023/05/24 07:01:19;;;;;;;10.10;6.32;;;;;;;;;;5073786;28;20048;-66
2023/05/24 07:03:46;;;;;;;9.95;6.50;;;;;;;;;;5073872;28;20068;-65
2023/05/24 07:06:15;;;;;;;10.25;6.00;;;;;;;;;;5073809;28;20090;-65
2023/05/24 07:08:42;;;;;;;10.85;5.78;;;;;;;;;;5056074;28;20538;-65
2023/05/24 07:11:10;;;;;;;6.88;5.00;;;;;;;;;;5073586;28;20101;-65
2023/05/24 07:13:37;;;;;;;8.00;4.68;;;;;;;;;;5073542;28;20094;-65
2023/05/24 07:16:06;;;;;;;7.18;4.82;;;;;;;;;;5073470;28;20510;-65
2023/05/24 07:18:33;;;;;;;5.05;4.20;;;;;;;;;;5055857;28;20139;-65
2023/05/24 07:21:00;;;;;;;10.55;4.43;;;;;;;;;;5073280;28;20041;-65
2023/05/24 07:23:28;;;;;;;9.05;4.40;;;;;;;;;;5073457;28;20060;-66
2023/05/24 07:25:56;;;;;;;6.13;3.90;;;;;;;;;;5073424;28;20519;-65
2023/05/24 07:28:23;;;;;;;12.70;3.88;;;;;;;;;;5073436;28;20040;-65
2023/05/24 07:30:51;;;;;;;12.55;3.92;;;;;;;;;;5055708;28;20051;-66
2023/05/24 07:33:19;;;;;;;6.07;4.50;;;;;;;;;;5073384;28;20033;-66
2023/05/24 07:35:50;;;;;;;7.53;3.92;;;;;;;;;;5055652;28;20067;-66
2023/05/24 07:38:18;;;;;;;6.38;4.13;;;;;;;;;;5073100;28;20049;-65
2023/05/24 07:40:45;;;;;;;8.55;4.85;;;;;;;;;;5073025;28;20051;-65
2023/05/24 07:43:13;;;;;;;7.15;3.95;;;;;;;;;;5073156;28;20502;-66
2023/05/24 07:45:41;;;;;;;5.57;4.00;;;;;;;;;;5054948;28;20055;-66
2023/05/24 07:48:08;;;;;;;6.38;4.03;;;;;;;;;;5073109;28;20056;-65
2023/05/24 07:50:37;;;;;;;5.82;3.60;;;;;;;;;;5072881;28;20066;-66
2023/05/24 07:53:05;;;;;;;7.15;3.75;;;;;;;;;;5073254;28;20037;-66
2023/05/24 07:55:32;;;;;;;6.70;3.78;;;;;;;;;;5072722;28;20038;-66
2023/05/24 07:58:00;;;;;;;6.53;3.60;;;;;;;;;;5072541;28;20072;-64
2023/05/24 08:00:28;;;;;;;5.20;4.00;;;;;;;;;;5072730;28;20090;-64
2023/05/24 08:02:56;;;;;;;5.38;3.45;;;;;;;;;;5072690;28;20082;-65
2023/05/24 08:05:24;;;;;;;7.72;3.65;;;;;;;;;;5072908;28;20041;-65
2023/05/24 08:07:52;;;;;;;5.88;3.72;;;;;;;;;;5072835;28;20068;-65
2023/05/24 08:10:20;;;;;;;7.85;3.97;;;;;;;;;;5073121;28;20040;-65
2023/05/24 08:12:50;;;;;;;5.57;3.30;;;;;;;;;;5072641;28;20071;-64
2023/05/24 08:15:17;;;;;;;5.47;3.08;;;;;;;;;;5072768;28;20036;-65
2023/05/24 08:17:45;;;;;;;7.57;3.50;;;;;;;;;;5072602;28;20504;-65
2023/05/24 08:20:16;;;;;;;6.47;3.65;;;;;;;;;;5055344;28;20072;-65
2023/05/24 08:22:44;;;;;;;6.68;3.38;;;;;;;;;;5072812;28;20075;-65
2023/05/24 08:25:11;;;;;;;4.75;3.42;;;;;;;;;;5072543;28;20041;-64
2023/05/24 08:27:39;;;;;;;9.00;4.03;;;;;;;;;;5072447;28;20063;-64
2023/05/24 08:30:07;;;;;;;4.75;3.30;;;;;;;;;;5072599;28;20090;-64
2023/05/24 08:32:35;;;;;;;7.18;3.83;;;;;;;;;;5054889;28;20106;-64
2023/05/24 08:35:03;;;;;;;6.53;3.65;;;;;;;;;;5072798;28;20051;-64
2023/05/24 08:37:47;;;;;;;7.60;3.80;;;;;;;;;;5072543;28;20052;-64
2023/05/24 08:40:15;;;;;;;6.07;3.30;;;;;;;;;;5072441;28;20425;-64
2023/05/24 08:42:44;;;;;;;3.45;3.10;;;;;;;;;;5072633;28;20032;-64
2023/05/24 08:45:12;;;;;;;4.97;3.35;;;;;;;;;;5072834;28;20056;-64
2023/05/24 08:47:41;;;;;;;6.88;3.83;;;;;;;;;;5072447;28;20071;-65
2023/05/24 08:50:09;;;;;;;4.05;3.00;;;;;;;;;;5072238;28;20441;-64
2023/05/24 08:52:38;;;;;;;6.05;3.40;;;;;;;;;;5072508;28;20449;-64
2023/05/24 08:55:06;;;;;;;4.80;3.63;;;;;;;;;;5055030;28;20083;-65
2023/05/24 08:57:38;;;;;;;7.50;3.70;;;;;;;;;;5072529;28;20066;-65
2023/05/24 09:00:12;;;;;;;5.78;3.40;;;;;;;;;;5072520;28;20047;-65
2023/05/24 09:02:41;;;;;;;4.47;3.47;;;;;;;;;;5072449;28;20505;-65
2023/05/24 09:05:14;;;;;;;6.90;4.55;;;;;;;;;;5072276;28;20041;-65
2023/05/24 09:07:43;;;;;;;8.55;4.32;;;;;;;;;;5072446;28;20032;-65
2023/05/24 09:10:11;;;;;;;6.40;3.78;;;;;;;;;;5073233;28;20045;-65
2023/05/24 09:12:39;;;;;;;6.93;3.92;;;;;;;;;;5076018;28;20115;-64
2023/05/24 09:15:08;;;;;;;6.50;3.70;;;;;;;;;;5075958;28;20032;-65
2023/05/24 09:17:36;;;;;;;7.43;3.72;;;;;;;;;;5058156;28;20041;-65
2023/05/24 09:20:09;;;;;;;5.75;4.22;;;;;;;;;;5075673;28;20086;-64
2023/05/24 09:22:37;;;;;;;4.10;3.58;;;;;;;;;;5075706;28;20045;-65
2023/05/24 09:25:08;;;;;;;5.38;3.72;;;;;;;;;;5075856;28;20398;-65
2023/05/24 09:27:37;;;;;;;5.55;3.50;;;;;;;;;;5075726;28;20040;-64
2023/05/24 09:30:08;;;;;;;7.13;3.45;;;;;;;;;;5057993;28;20094;-65
2023/05/24 09:32:36;;;;;;;9.77;4.00;;;;;;;;;;5075835;28;20094;-64
2023/05/24 09:35:08;;;;;;;8.75;3.88;;;;;;;;;;5075372;28;20052;-65
2023/05/24 09:37:37;;;;;;;5.68;3.33;;;;;;;;;;5075320;28;20056;-64
2023/05/24 09:40:07;;;;;;;6.88;3.90;;;;;;;;;;5075491;28;20040;-64
2023/05/24 09:42:36;;;;;;;6.97;3.92;;;;;;;;;;5075418;28;20055;-64
2023/05/24 09:45:11;;;;;;;4.50;3.20;;;;;;;;;;5075425;28;20098;-65
2023/05/24 09:47:43;;;;;;;7.93;4.30;;;;;;;;;;5075442;28;20441;-65
2023/05/24 09:50:12;;;;;;;4.47;3.40;;;;;;;;;;5075254;28;20052;-65
2023/05/24 09:52:40;;;;;;;6.93;3.42;;;;;;;;;;5075395;28;20044;-64
2023/05/24 09:55:11;;;;;;;5.35;3.55;;;;;;;;;;5075152;28;20402;-65
2023/05/24 09:57:40;;;;;;;8.70;5.40;;;;;;;;;;5075203;28;20049;-64
2023/05/24 10:00:16;;;;;;;8.90;4.13;;;;;;;;;;5075165;28;20055;-65
2023/05/24 10:02:44;;;;;;;5.30;3.70;;;;;;;;;;5057286;28;20052;-65
2023/05/24 10:05:20;;;;;;;5.03;3.35;;;;;;;;;;5075058;28;20070;-64
2023/05/24 10:07:48;;;;;;;6.80;4.35;;;;;;;;;;5074926;28;20048;-65
2023/05/24 10:10:16;;;;;;;7.38;4.15;;;;;;;;;;5075047;28;20455;-65
2023/05/24 10:12:45;;;;;;;6.32;3.80;;;;;;;;;;5075064;28;20044;-64
2023/05/24 10:15:13;;;;;;;6.43;4.22;;;;;;;;;;5074752;28;20063;-65
2023/05/24 10:17:40;;;;;;;7.75;3.83;;;;;;;;;;5074717;28;20037;-65
2023/05/24 10:20:11;;;;;;;5.30;3.50;;;;;;;;;;5074721;28;20037;-65
2023/05/24 10:22:44;;;;;;;5.65;3.97;;;;;;;;;;5074672;28;20461;-65
2023/05/24 10:25:17;;;;;;;5.90;4.00;;;;;;;;;;5074921;28;20115;-65
2023/05/24 10:27:45;;;;;;;7.53;4.30;;;;;;;;;;5056679;28;20498;-64
2023/05/24 10:30:18;;;;;;;4.20;3.53;;;;;;;;;;5074401;28;20048;-65
2023/05/24 10:32:47;;;;;;;4.85;3.28;;;;;;;;;;5074315;28;20452;-64
2023/05/24 10:35:16;;;;;;;6.85;3.97;;;;;;;;;;5074437;28;20036;-65
2023/05/24 10:37:46;;;;;;;7.68;4.15;;;;;;;;;;5074239;28;20057;-65
2023/05/24 10:40:18;;;;;;;5.93;3.72;;;;;;;;;;5074241;28;20048;-64
2023/05/24 10:42:47;;;;;;;6.82;3.70;;;;;;;;;;5074475;28;20394;-64
2023/05/24 10:45:35;;;;;;;6.97;4.88;;;;;;;;;;5074277;28;20041;-65
2023/05/24 10:48:29;;;;;;;4.30;3.35;;;;;;;;;;5074078;28;20068;-65
2023/05/24 10:50:56;;;;;;;6.78;3.60;;;;;;;;;;5050995;28;20052;-65
2023/05/24 10:53:27;;;;;;;6.38;3.78;;;;;;;;;;5074283;28;20446;-64
2023/05/24 10:56:05;;;;;;;4.95;3.75;;;;;;;;;;5074054;28;20036;-65
2023/05/24 10:58:58;;;;;;;5.78;3.60;;;;;;;;;;5056299;28;20570;-65
2023/05/24 11:01:25;;;;;;;4.25;3.40;;;;;;;;;;5074471;28;20113;-66
2023/05/24 11:03:53;;;;;;;6.60;3.90;;;;;;;;;;5074022;28;20135;-66
2023/05/24 11:06:41;;;;;;;7.93;3.70;;;;;;;;;;5074041;28;20132;-66
2023/05/24 11:09:09;;;;;;;7.03;3.72;;;;;;;;;;5055822;28;20064;-65
2023/05/24 11:11:37;;;;;;;4.55;3.50;;;;;;;;;;5073607;28;20049;-66
2023/05/24 11:14:06;;;;;;;7.18;3.72;;;;;;;;;;5073671;28;20381;-65
2023/05/24 11:16:36;;;;;;;5.97;3.47;;;;;;;;;;5073738;28;20044;-65
2023/05/24 11:19:13;;;;;;;5.10;3.38;;;;;;;;;;5073463;28;20051;-66
2023/05/24 11:21:43;;;;;;;5.82;3.63;;;;;;;;;;5073451;28;20047;-65
2023/05/24 11:24:11;;;;;;;5.80;3.58;;;;;;;;;;5073280;28;20068;-65
2023/05/24 11:26:38;;;;;;;6.50;3.80;;;;;;;;;;5073540;28;20041;-65
2023/05/24 11:29:07;;;;;;;4.75;3.70;;;;;;;;;;5073732;28;20064;-66
2023/05/24 11:31:38;;;;;;;5.25;3.83;;;;;;;;;;5055340;28;20094;-66
2023/05/24 11:34:10;;;;;;;6.65;4.00;;;;;;;;;;5055758;28;20040;-66
2023/05/24 11:36:38;;;;;;;7.57;3.88;;;;;;;;;;5073001;28;20423;-66
2023/05/24 11:39:09;;;;;;;4.82;3.50;;;;;;;;;;5073296;28;20055;-65
2023/05/24 11:41:37;;;;;;;4.50;3.70;;;;;;;;;;5073425;28;20079;-66
2023/05/24 11:44:06;;;;;;;6.07;3.95;;;;;;;;;;5073488;28;20124;-65
2023/05/24 11:46:34;;;;;;;6.03;3.72;;;;;;;;;;5073010;28;20040;-63
2023/05/24 11:49:02;;;;;;;7.55;3.97;;;;;;;;;;5072978;28;20043;-64
2023/05/24 11:51:30;;;;;;;4.53;3.38;;;;;;;;;;5072737;28;20048;-63
2023/05/24 11:53:58;;;;;;;7.43;3.90;;;;;;;;;;5071672;28;20506;-64
2023/05/24 11:56:27;;;;;;;6.90;4.00;;;;;;;;;;5072093;28;20044;-64
2023/05/24 11:59:21;;;;;;;6.45;3.83;;;;;;;;;;5074510;28;20417;-64
2023/05/24 12:01:50;;;;;;;4.95;3.42;;;;;;;;;;5062295;28;20041;-64
2023/05/24 12:04:17;;;;;;;5.97;3.50;;;;;;;;;;5072476;28;20040;-65
2023/05/24 12:06:45;;;;;;;6.10;3.70;;;;;;;;;;5072544;28;20033;-64
2023/05/24 12:09:15;;;;;;;4.55;3.72;;;;;;;;;;5072600;28;20045;-65
2023/05/24 12:11:43;;;;;;;6.18;4.18;;;;;;;;;;5070479;28;20128;-64
2023/05/24 12:14:12;;;;;;;7.55;4.07;;;;;;;;;;5053205;28;20060;-64
2023/05/24 12:16:41;;;;;;;8.68;3.67;;;;;;;;;;5064276;28;20287;-64
2023/05/24 12:19:12;;;;;;;6.20;3.97;;;;;;;;;;5064926;28;20042;-64
2023/05/24 12:21:58;;;;;;;5.50;3.60;;;;;;;;;;5072310;28;20051;-64
2023/05/24 12:24:26;;;;;;;8.18;3.53;;;;;;;;;;5066945;28;20036;-65
2023/05/24 12:26:58;;;;;;;5.53;3.53;;;;;;;;;;5065713;28;20041;-63
2023/05/24 12:29:25;;;;;;;6.25;4.45;;;;;;;;;;5072248;28;20098;-65
2023/05/24 12:31:53;;;;;;;7.90;4.70;;;;;;;;;;5068104;28;20410;-64
2023/05/24 12:34:20;;;;;;;7.40;3.55;;;;;;;;;;5058535;28;20045;-65
2023/05/24 12:36:48;;;;;;;7.32;3.50;;;;;;;;;;5064380;28;20036;-64
2023/05/24 12:39:23;;;;;;;6.70;4.07;;;;;;;;;;5043707;28;20106;-64
2023/05/24 12:41:51;;;;;;;29.27;24.13;;;;;;;;;;5058621;28;20037;-66
2023/05/24 12:44:26;;;;;;;9.65;7.20;;;;;;;;;;5063062;28;20059;-65
2023/05/24 12:46:53;;;;;;;;;;;;;;;;;;5064639;28;20045;-66
2023/05/24 12:49:21;;;;;;;7.15;5.43;;;;;;;;;;5065781;28;19920;-66
2023/05/24 12:51:49;;;;;;;6.78;4.00;;;;;;;;;;5061386;28;20169;-66
2023/05/24 12:54:35;;;;;;;6.57;4.22;;;;;;;;;;5061427;28;20045;-65
2023/05/24 12:57:02;;;;;;;8.52;7.05;;;;;;;;;;5074157;28;20405;-66
2023/05/24 12:59:30;;;;;;;5.78;3.58;;;;;;;;;;5075651;28;20042;-66
2023/05/24 13:01:57;;;;;;;5.53;3.88;;;;;;;;;;5070963;28;20090;-66
2023/05/24 13:04:25;;;;;;;6.22;3.95;;;;;;;;;;5057584;28;20041;-66
2023/05/24 13:06:54;;;;;;;8.93;4.30;;;;;;;;;;5076108;28;20502;-66
2023/05/24 13:09:22;;;;;;;6.90;4.95;;;;;;;;;;5075754;28;20047;-66
2023/05/24 13:11:51;;;;;;;8.10;4.45;;;;;;;;;;5075453;28;20048;-66
2023/05/24 13:14:18;;;;;;;5.88;4.63;;;;;;;;;;5058013;28;20426;-66
2023/05/24 13:16:46;;;;;;;5.97;3.80;;;;;;;;;;5075362;28;20037;-65
2023/05/24 13:19:15;;;;;;;5.45;3.70;;;;;;;;;;5075546;28;20037;-66
2023/05/24 13:21:42;;;;;;;6.90;3.95;;;;;;;;;;5075194;28;20036;-66
2023/05/24 13:24:12;;;;;;;5.18;4.35;;;;;;;;;;5075374;28;20041;-66
2023/05/24 13:26:39;;;;;;;5.85;3.92;;;;;;;;;;5075321;28;20040;-66
2023/05/24 13:29:07;;;;;;;6.28;5.40;;;;;;;;;;5075468;28;20033;-66
2023/05/24 13:31:55;;;;;;;5.25;3.95;;;;;;;;;;5074939;28;20032;-66
2023/05/24 13:34:26;;;;;;;8.68;4.28;;;;;;;;;;5075194;28;20091;-66
2023/05/24 13:36:54;;;;;;;7.03;4.10;;;;;;;;;;5075430;28;20044;-65
2023/05/24 13:39:21;;;;;;;5.80;4.40;;;;;;;;;;5057900;28;20046;-66
2023/05/24 13:41:49;;;;;;;7.85;5.95;;;;;;;;;;5052009;28;20025;-66
2023/05/24 13:44:17;;;;;;;6.57;4.45;;;;;;;;;;5057513;28;20048;-66
2023/05/24 13:46:44;;;;;;;7.00;4.90;;;;;;;;;;5061865;28;20045;-66
2023/05/24 13:49:12;;;;;;;5.93;4.18;;;;;;;;;;5074013;28;20066;-66
2023/05/24 13:51:40;;;;;;;9.77;5.78;;;;;;;;;;5069363;28;20550;-65
2023/05/24 13:54:07;;;;;;;7.70;4.75;;;;;;;;;;5043368;28;20041;-66
2023/05/24 13:56:35;;;;;;;5.82;4.20;;;;;;;;;;5064275;28;20059;-64
2023/05/24 13:59:03;;;;;;;6.35;4.18;;;;;;;;;;5051607;28;20098;-65
2023/05/24 14:01:32;;;;;;;7.95;4.93;;;;;;;;;;5074133;28;20135;-65
2023/05/24 14:04:01;;;;;;;6.30;3.60;;;;;;;;;;5074810;28;20048;-65
2023/05/24 14:06:28;;;;;;;5.15;3.85;;;;;;;;;;5056396;28;20459;-66
2023/05/24 14:08:56;;;;;;;6.78;4.95;;;;;;;;;;5074895;28;20448;-65
2023/05/24 14:11:24;;;;;;;6.32;3.70;;;;;;;;;;5072217;28;20107;-66
2023/05/24 14:13:52;;;;;;;6.78;4.25;;;;;;;;;;5070978;28;20449;-66
2023/05/24 14:16:23;;;;;;;5.75;4.28;;;;;;;;;;5069993;28;20040;-66
2023/05/24 14:18:51;;;;;;;4.55;3.78;;;;;;;;;;5075223;28;21035;-66
2023/05/24 14:21:20;;;;;;;5.35;3.63;;;;;;;;;;5072651;28;20040;-66
2023/05/24 14:23:49;;;;;;;7.80;5.13;;;;;;;;;;5061104;28;20059;-66
2023/05/24 14:26:17;;;;;;;6.18;4.50;;;;;;;;;;5070720;28;20437;-66
2023/05/24 14:28:45;;;;;;;6.85;4.07;;;;;;;;;;5074468;28;20040;-65
2023/05/24 14:31:12;;;;;;;10.20;7.63;;;;;;;;;;5085018;28;20040;-65
2023/05/24 14:33:40;;;;;;;8.07;4.70;;;;;;;;;;5074453;28;20040;-68
2023/05/24 14:36:07;;;;;;;13.85;8.60;;;;;;;;;;5074040;28;20041;-67
2023/05/24 14:38:35;;;;;;;7.13;4.80;;;;;;;;;;5056572;28;20124;-65
2023/05/24 14:41:03;;;;;;;13.38;10.07;;;;;;;;;;5074233;28;20040;-66
2023/05/24 14:43:30;;;;;;;8.32;4.55;;;;;;;;;;5073813;28;20051;-65
2023/05/24 14:46:01;;;;;;;13.50;10.27;;;;;;;;;;5074356;28;20391;-66
2023/05/24 14:48:28;;;;;;;8.80;6.15;;;;;;;;;;5074259;28;20628;-66